createdAt,value
2023-02-17T00:01:45.251Z,38.20
2023-02-17T00:04:33.593Z,38.17
2023-02-17T00:07:20.949Z,36.60
2023-02-17T00:10:08.602Z,36.77
2023-02-17T00:12:55.969Z,36.90
2023-02-17T00:15:43.412Z,37.27
2023-02-17T00:18:30.782Z,37.87
2023-02-17T00:21:19.884Z,37.80
2023-02-17T00:24:07.334Z,35.33
2023-02-17T00:26:54.938Z,35.03
2023-02-17T00:29:42.452Z,35.07
2023-02-17T00:32:29.813Z,35.67
2023-02-17T00:35:17.226Z,34.97
2023-02-17T00:38:04.576Z,33.73
2023-02-17T00:40:51.915Z,34.00
2023-02-17T00:43:39.309Z,32.17
2023-02-17T00:46:27.590Z,33.00
2023-02-17T00:49:16.971Z,32.37
2023-02-17T00:52:04.399Z,31.53
2023-02-17T00:54:51.771Z,33.97
2023-02-17T00:57:39.130Z,31.53
2023-02-17T01:00:26.789Z,33.37
2023-02-17T01:03:14.169Z,32.47
2023-02-17T01:06:05.775Z,34.30
2023-02-17T01:08:53.481Z,32.87
2023-02-17T01:11:41.135Z,32.63
2023-02-17T01:14:28.470Z,33.63
2023-02-17T01:17:15.873Z,32.87
2023-02-17T01:20:03.282Z,33.13
2023-02-17T01:22:50.672Z,32.03
2023-02-17T01:25:41.581Z,29.00
2023-02-17T01:28:31.167Z,29.67
2023-02-17T01:31:19.185Z,29.33
2023-02-17T01:34:06.597Z,27.97
2023-02-17T01:36:54.179Z,28.07
2023-02-17T01:39:41.513Z,28.67
2023-02-17T01:42:28.954Z,27.03
2023-02-17T01:45:16.258Z,27.60
2023-02-17T01:48:06.679Z,29.33
2023-02-17T01:50:55.803Z,27.47
2023-02-17T01:53:43.225Z,26.20
2023-02-17T01:56:31.983Z,31.93
2023-02-17T01:59:20.852Z,26.77
2023-02-17T02:02:08.646Z,28.40
2023-02-17T02:04:56.231Z,29.13
2023-02-17T02:07:44.475Z,28.57
2023-02-17T02:10:31.823Z,28.57
2023-02-17T02:13:19.167Z,30.03
2023-02-17T02:16:25.197Z,30.87
2023-02-17T02:19:21.862Z,30.30
2023-02-17T02:22:12.280Z,30.93
2023-02-17T02:25:28.652Z,31.63
2023-02-17T02:28:32.433Z,32.10
2023-02-17T02:31:45.844Z,32.80
2023-02-17T02:34:37.792Z,34.87
2023-02-17T02:37:27.329Z,33.17
2023-02-17T02:40:16.117Z,35.20
2023-02-17T02:43:04.418Z,34.80
2023-02-17T02:45:51.811Z,36.83
2023-02-17T02:48:39.583Z,35.10
2023-02-17T02:51:34.190Z,35.50
2023-02-17T02:54:29.699Z,39.87
2023-02-17T02:57:29.773Z,38.50
2023-02-17T03:00:24.346Z,40.40
2023-02-17T03:03:14.453Z,39.20
2023-02-17T03:06:09.016Z,38.10
2023-02-17T03:09:05.707Z,35.87
2023-02-17T03:11:54.079Z,38.20
2023-02-17T03:14:43.236Z,38.70
2023-02-17T03:17:34.113Z,38.80
2023-02-17T03:20:21.913Z,35.33
2023-02-17T03:23:09.602Z,35.17
2023-02-17T03:25:56.571Z,35.07
2023-02-17T03:28:43.915Z,32.53
2023-02-17T03:31:31.306Z,36.47
2023-02-17T03:34:18.314Z,34.30
2023-02-17T03:37:05.257Z,32.40
2023-02-17T03:39:52.250Z,33.30
2023-02-17T03:42:39.222Z,33.87
2023-02-17T03:45:26.339Z,30.93
2023-02-17T03:48:13.330Z,32.87
2023-02-17T03:51:13.205Z,31.80
2023-02-17T03:54:00.140Z,31.43
2023-02-17T03:56:47.117Z,31.20
2023-02-17T03:59:34.450Z,29.90
2023-02-17T04:02:21.383Z,28.97
2023-02-17T04:05:08.483Z,29.27
2023-02-17T04:07:55.558Z,29.60
2023-02-17T04:10:44.958Z,27.00
2023-02-17T04:13:32.366Z,29.03
2023-02-17T04:16:19.353Z,26.87
2023-02-17T04:19:09.375Z,27.67
2023-02-17T04:21:56.314Z,28.20
2023-02-17T04:24:43.274Z,30.60
2023-02-17T04:27:30.212Z,28.07
2023-02-17T04:30:17.238Z,27.20
2023-02-17T04:33:05.039Z,29.10
2023-02-17T04:35:59.255Z,30.47
2023-02-17T04:38:46.676Z,28.53
2023-02-17T04:41:34.033Z,30.13
2023-02-17T04:44:21.526Z,29.03
2023-02-17T04:47:08.855Z,28.87
2023-02-17T04:49:56.520Z,26.93
2023-02-17T04:52:43.962Z,27.33
2023-02-17T04:55:31.467Z,31.67
2023-02-17T04:58:19.568Z,29.37
2023-02-17T05:01:06.935Z,29.60
2023-02-17T05:03:54.319Z,28.53
2023-02-17T05:06:41.696Z,27.30
2023-02-17T05:09:29.061Z,27.10
2023-02-17T05:12:16.409Z,24.50
2023-02-17T05:15:04.109Z,23.90
2023-02-17T05:17:51.500Z,23.47
2023-02-17T05:20:38.842Z,24.80
2023-02-17T05:23:26.199Z,25.83
2023-02-17T05:26:13.597Z,23.97
2023-02-17T05:29:00.981Z,24.93
2023-02-17T05:31:48.442Z,25.03
2023-02-17T05:34:36.331Z,23.47
2023-02-17T05:37:23.759Z,22.30
2023-02-17T05:40:11.741Z,23.57
2023-02-17T05:42:59.203Z,23.03
2023-02-17T05:45:46.704Z,24.17
2023-02-17T05:48:34.148Z,24.20
2023-02-17T05:51:21.531Z,23.97
2023-02-17T05:54:08.954Z,24.97
2023-02-17T05:56:56.285Z,24.27
2023-02-17T05:59:43.695Z,24.93
2023-02-17T06:02:31.078Z,26.93
2023-02-17T06:05:18.516Z,26.10
2023-02-17T06:08:06.087Z,25.50
2023-02-17T06:10:54.023Z,26.83
2023-02-17T06:13:41.396Z,27.80
2023-02-17T06:16:28.842Z,27.13
2023-02-17T06:19:16.235Z,26.83
2023-02-17T06:22:03.605Z,27.50
2023-02-17T06:24:50.928Z,26.37
2023-02-17T06:27:38.295Z,25.70
2023-02-17T06:30:25.675Z,24.77
2023-02-17T06:33:13.060Z,22.97
2023-02-17T06:36:00.520Z,23.03
2023-02-17T06:38:47.898Z,22.60
2023-02-17T06:41:35.249Z,22.23
2023-02-17T06:44:22.604Z,21.67
2023-02-17T06:47:10.232Z,22.77
2023-02-17T06:49:57.586Z,22.20
2023-02-17T06:52:45.026Z,20.80
2023-02-17T06:55:34.650Z,21.27
2023-02-17T06:58:22.218Z,21.27
2023-02-17T07:01:15.954Z,20.07
2023-02-17T07:04:03.464Z,21.17
2023-02-17T07:06:50.853Z,21.10
2023-02-17T07:09:38.816Z,18.70
2023-02-17T07:12:27.761Z,19.70
2023-02-17T07:15:15.207Z,19.83
2023-02-17T07:18:03.100Z,19.23
2023-02-17T07:20:50.551Z,20.03
2023-02-17T07:23:39.416Z,18.73
2023-02-17T07:26:26.792Z,19.07
2023-02-17T07:29:14.229Z,18.60
2023-02-17T07:32:02.278Z,20.77
2023-02-17T07:34:49.740Z,19.93
2023-02-17T07:37:37.543Z,19.47
2023-02-17T07:40:25.239Z,20.90
2023-02-17T07:43:12.699Z,23.50
2023-02-17T07:46:00.175Z,26.27
2023-02-17T07:48:48.380Z,28.23
2023-02-17T07:51:36.107Z,25.10
2023-02-17T07:54:24.042Z,27.63
2023-02-17T07:57:11.413Z,28.07
2023-02-17T07:59:58.775Z,27.43
2023-02-17T08:02:46.257Z,28.23
2023-02-17T08:05:33.636Z,28.73
2023-02-17T08:08:39.874Z,29.63
2023-02-17T08:11:48.205Z,28.80
2023-02-17T08:14:37.265Z,27.87
2023-02-17T08:17:24.630Z,28.90
2023-02-17T08:20:13.572Z,29.17
2023-02-17T08:23:01.100Z,28.40
2023-02-17T08:25:48.462Z,27.57
2023-02-17T08:28:35.860Z,28.07
2023-02-17T08:31:24.972Z,28.53
2023-02-17T08:34:13.198Z,26.40
2023-02-17T08:37:04.623Z,26.50
2023-02-17T08:39:52.001Z,27.90
2023-02-17T08:42:39.775Z,26.97
2023-02-17T08:45:27.157Z,25.63
2023-02-17T08:48:14.482Z,24.20
2023-02-17T08:51:01.889Z,24.17
2023-02-17T08:53:49.260Z,24.07
2023-02-17T08:56:37.224Z,25.07
2023-02-17T08:59:24.626Z,24.87
2023-02-17T09:02:12.137Z,22.33
2023-02-17T09:08:11.177Z,24.07
2023-02-17T09:10:58.714Z,22.97
2023-02-17T09:13:46.262Z,21.80
2023-02-17T09:16:33.893Z,19.70
2023-02-17T09:19:21.882Z,19.37
2023-02-17T09:22:09.592Z,21.63
2023-02-17T09:24:58.411Z,20.00
2023-02-17T09:27:45.804Z,20.37
2023-02-17T09:30:33.379Z,19.33
2023-02-17T09:33:20.869Z,20.10
2023-02-17T09:36:09.638Z,19.07
2023-02-17T09:38:57.318Z,17.90
2023-02-17T09:41:47.607Z,17.47
2023-02-17T09:44:42.438Z,17.93
2023-02-17T09:47:32.749Z,17.20
2023-02-17T09:50:26.824Z,16.13
2023-02-17T09:53:17.224Z,17.03
2023-02-17T09:56:06.400Z,17.00
2023-02-17T09:58:56.360Z,16.37
2023-02-17T10:01:45.061Z,17.73
2023-02-17T10:04:37.174Z,16.33
2023-02-17T10:07:30.050Z,16.23
2023-02-17T10:10:23.210Z,15.77
2023-02-17T10:13:10.671Z,14.37
2023-02-17T10:16:02.037Z,15.87
2023-02-17T10:18:52.787Z,14.50
2023-02-17T10:21:43.786Z,15.43
2023-02-17T10:24:31.221Z,14.93
2023-02-17T10:27:22.885Z,14.53
2023-02-17T10:30:28.979Z,14.40
2023-02-17T10:33:26.468Z,13.60
2023-02-17T10:36:33.865Z,13.17
2023-02-17T10:39:40.021Z,12.73
2023-02-17T10:42:29.566Z,12.07
2023-02-17T10:45:32.061Z,12.70
2023-02-17T10:48:24.636Z,12.73
2023-02-17T10:51:15.047Z,11.83
2023-02-17T10:54:08.123Z,10.77
2023-02-17T10:56:56.537Z,10.97
2023-02-17T10:59:45.020Z,11.30
2023-02-17T11:02:46.249Z,11.10
2023-02-17T11:05:35.068Z,10.97
2023-02-17T11:08:30.822Z,11.50
2023-02-17T11:11:19.995Z,10.60
2023-02-17T11:14:07.609Z,11.37
2023-02-17T11:17:24.148Z,9.97
2023-02-17T11:20:14.376Z,10.67
2023-02-17T11:23:01.975Z,9.00
2023-02-17T11:25:57.492Z,10.97
2023-02-17T11:28:44.816Z,9.80
2023-02-17T11:31:32.442Z,8.97
2023-02-17T11:34:24.239Z,10.13
2023-02-17T11:37:14.674Z,10.07
2023-02-17T11:40:15.370Z,9.00
2023-02-17T11:43:03.466Z,9.50
2023-02-17T11:45:50.952Z,9.23
2023-02-17T11:48:57.006Z,9.37
2023-02-17T11:52:03.266Z,9.00
2023-02-17T11:54:50.595Z,9.47
2023-02-17T11:57:45.366Z,9.97
2023-02-17T12:00:42.042Z,9.40
2023-02-17T12:03:29.385Z,9.30
2023-02-17T12:06:22.910Z,9.27
2023-02-17T12:09:13.307Z,8.80
2023-02-17T12:12:12.582Z,10.17
2023-02-17T12:15:02.966Z,9.43
2023-02-17T12:17:50.357Z,10.23
2023-02-17T12:20:37.712Z,9.53
2023-02-17T12:23:30.582Z,8.57
2023-02-17T12:26:34.985Z,9.77
2023-02-17T12:29:22.333Z,9.53
2023-02-17T12:32:19.144Z,8.57
2023-02-17T12:35:27.091Z,8.10
2023-02-17T12:38:17.165Z,8.30
2023-02-17T12:41:15.662Z,7.83
2023-02-17T12:44:07.640Z,7.97
2023-02-17T12:46:58.082Z,7.80
2023-02-17T12:49:55.208Z,6.47
2023-02-17T12:52:45.025Z,7.50
2023-02-17T12:55:48.205Z,7.07
2023-02-17T12:58:36.231Z,6.80
2023-02-17T13:01:26.136Z,6.33
2023-02-17T13:04:15.798Z,6.70
2023-02-17T13:07:20.314Z,7.27
2023-02-17T13:10:18.612Z,6.53
2023-02-17T13:13:07.747Z,8.52
2023-02-17T13:16:07.594Z,6.27
2023-02-17T13:18:55.385Z,6.47
2023-02-17T13:21:56.567Z,6.20
2023-02-17T13:24:54.061Z,6.07
2023-02-17T13:27:41.712Z,5.50
2023-02-17T13:30:31.601Z,6.13
2023-02-17T13:33:22.006Z,6.27
2023-02-17T13:36:14.545Z,6.83
2023-02-17T13:39:08.238Z,5.90
2023-02-17T13:41:56.719Z,5.87
2023-02-17T13:44:46.393Z,6.87
2023-02-17T13:47:38.507Z,6.43
2023-02-17T13:50:36.623Z,6.03
2023-02-17T13:53:32.915Z,8.27
2023-02-17T13:56:28.469Z,7.20
2023-02-17T13:59:18.166Z,8.03
2023-02-17T14:02:30.343Z,7.83
2023-02-17T14:05:27.226Z,7.40
2023-02-17T14:08:32.670Z,7.20
2023-02-17T14:11:21.004Z,8.57
2023-02-17T14:14:08.439Z,7.47
2023-02-17T14:17:06.547Z,7.63
2023-02-17T14:19:53.999Z,6.17
2023-02-17T14:22:41.708Z,5.63
2023-02-17T14:25:30.322Z,5.00
2023-02-17T14:28:22.300Z,4.50
2023-02-17T14:31:13.219Z,4.70
2023-02-17T14:34:01.980Z,4.60
2023-02-17T14:36:49.313Z,4.30
2023-02-17T14:39:36.785Z,3.20
2023-02-17T14:42:24.156Z,3.30
2023-02-17T14:45:11.595Z,2.60
2023-02-17T14:47:58.990Z,3.30
2023-02-17T14:50:46.641Z,3.80
2023-02-17T14:53:36.440Z,5.07
2023-02-17T14:56:35.383Z,5.90
2023-02-17T14:59:22.831Z,3.57
2023-02-17T15:02:17.692Z,4.37
2023-02-17T15:05:05.196Z,4.23
2023-02-17T15:07:52.637Z,3.83
2023-02-17T15:10:40.302Z,3.27
2023-02-17T15:13:27.749Z,3.90
2023-02-17T15:16:16.113Z,3.73
2023-02-17T15:19:03.538Z,4.10
2023-02-17T15:21:51.903Z,4.47
2023-02-17T15:24:39.807Z,4.60
2023-02-17T15:27:27.251Z,3.73
2023-02-17T15:30:18.387Z,4.23
2023-02-17T15:33:09.447Z,4.67
2023-02-17T15:35:56.967Z,3.63
2023-02-17T15:38:44.325Z,3.60
2023-02-17T15:41:31.807Z,5.07
2023-02-17T15:44:20.755Z,5.27
2023-02-17T15:47:12.738Z,3.83
2023-02-17T15:50:00.110Z,4.27
2023-02-17T15:52:47.645Z,3.73
2023-02-17T15:55:35.636Z,4.87
2023-02-17T15:58:23.776Z,4.50
2023-02-17T16:01:18.057Z,4.40
2023-02-17T16:04:06.723Z,4.63
2023-02-17T16:06:54.123Z,4.47
2023-02-17T16:09:41.571Z,5.33
2023-02-17T16:12:28.976Z,5.93
2023-02-17T16:15:18.132Z,4.27
2023-02-17T16:18:06.243Z,4.13
2023-02-17T16:20:53.657Z,4.47
2023-02-17T16:23:41.850Z,4.13
2023-02-17T16:26:34.603Z,4.37
2023-02-17T16:29:22.476Z,5.43
2023-02-17T16:32:13.229Z,4.43
2023-02-17T16:35:00.770Z,3.97
2023-02-17T16:37:59.209Z,4.27
2023-02-17T16:40:50.771Z,4.20
2023-02-17T16:43:38.204Z,3.93
2023-02-17T16:46:29.648Z,5.13
2023-02-17T16:49:32.457Z,3.93
2023-02-17T16:52:24.921Z,4.30
2023-02-17T16:55:16.283Z,4.80
2023-02-17T16:58:04.318Z,5.57
2023-02-17T17:00:53.217Z,4.40
2023-02-17T17:03:41.564Z,4.73
2023-02-17T17:06:30.364Z,3.77
2023-02-17T17:09:23.018Z,4.80
2023-02-17T17:12:11.449Z,4.10
2023-02-17T17:14:58.835Z,4.63
2023-02-17T17:17:53.849Z,4.77
2023-02-17T17:20:41.861Z,4.20
2023-02-17T17:23:29.310Z,3.83
2023-02-17T17:26:22.502Z,4.40
2023-02-17T17:29:10.730Z,5.93
2023-02-17T17:31:58.193Z,4.60
2023-02-17T17:34:45.697Z,4.30
2023-02-17T17:37:33.036Z,4.23
2023-02-17T17:40:24.967Z,5.30
2023-02-17T17:43:12.305Z,4.70
2023-02-17T17:45:59.714Z,3.70
2023-02-17T17:48:47.535Z,4.57
2023-02-17T17:51:35.119Z,4.47
2023-02-17T17:54:22.456Z,4.17
2023-02-17T17:57:10.045Z,4.17
2023-02-17T17:59:57.942Z,4.00
2023-02-17T18:02:45.550Z,4.60
2023-02-17T18:05:32.928Z,4.27
2023-02-17T18:08:20.339Z,4.57
2023-02-17T18:11:08.633Z,5.37
2023-02-17T18:13:58.258Z,4.70
2023-02-17T18:16:46.884Z,5.13
2023-02-17T18:19:34.535Z,5.17
2023-02-17T18:22:22.734Z,6.33
2023-02-17T18:25:10.454Z,4.83
2023-02-17T18:27:57.812Z,4.53
2023-02-17T18:30:45.304Z,3.57
2023-02-17T18:33:32.676Z,5.87
2023-02-17T18:36:22.030Z,4.73
2023-02-17T18:39:09.397Z,5.33
2023-02-17T18:41:56.762Z,4.50
2023-02-17T18:44:44.539Z,4.43
2023-02-17T18:47:32.225Z,4.83
2023-02-17T18:50:19.661Z,5.40
2023-02-17T18:53:07.059Z,4.23
2023-02-17T18:55:54.405Z,5.23
2023-02-17T18:58:41.820Z,4.93
2023-02-17T19:01:32.030Z,5.57
2023-02-17T19:04:19.415Z,4.57
2023-02-17T19:07:07.192Z,5.73
2023-02-17T19:09:54.640Z,4.30
2023-02-17T19:12:41.992Z,4.43
2023-02-17T19:15:29.497Z,4.40
2023-02-17T19:18:16.989Z,6.27
2023-02-17T19:21:04.453Z,5.40
2023-02-17T19:23:52.070Z,5.27
2023-02-17T19:26:39.556Z,5.50
2023-02-17T19:29:26.874Z,5.30
2023-02-17T19:32:14.292Z,5.00
2023-02-17T19:35:01.754Z,5.00
2023-02-17T19:37:49.230Z,4.90
2023-02-17T19:40:36.930Z,4.50
2023-02-17T19:43:24.336Z,4.57
2023-02-17T19:46:15.714Z,5.17
2023-02-17T19:49:04.459Z,5.17
2023-02-17T19:51:53.755Z,4.43
2023-02-17T19:54:41.101Z,7.03
2023-02-17T19:57:28.522Z,4.37
2023-02-17T20:00:15.981Z,5.07
2023-02-17T20:03:03.393Z,4.83
2023-02-17T20:05:50.734Z,4.53
2023-02-17T20:08:38.633Z,4.13
2023-02-17T20:11:26.125Z,3.67
2023-02-17T20:14:13.723Z,4.97
2023-02-17T20:17:01.083Z,4.80
2023-02-17T20:19:48.441Z,3.70
2023-02-17T20:22:35.798Z,3.80
2023-02-17T20:25:23.170Z,3.33
2023-02-17T20:28:10.623Z,4.20
2023-02-17T20:30:58.026Z,3.47
2023-02-17T20:33:45.409Z,4.57
2023-02-17T20:36:32.937Z,4.83
2023-02-17T20:39:20.361Z,4.87
2023-02-17T20:42:07.786Z,4.10
2023-02-17T20:44:56.205Z,4.10
2023-02-17T20:47:43.594Z,4.97
2023-02-17T20:50:31.076Z,3.97
2023-02-17T20:53:18.442Z,4.50
2023-02-17T20:56:11.896Z,3.53
2023-02-17T20:58:59.220Z,5.03
2023-02-17T21:01:47.080Z,4.13
2023-02-17T21:04:34.542Z,4.13
2023-02-17T21:07:21.885Z,3.50
2023-02-17T21:10:09.966Z,4.10
2023-02-17T21:12:57.366Z,4.27
2023-02-17T21:15:45.120Z,3.80
2023-02-17T21:18:33.902Z,4.27
2023-02-17T21:21:21.369Z,4.53
2023-02-17T21:24:08.930Z,4.23
2023-02-17T21:26:56.328Z,4.00
2023-02-17T21:29:43.694Z,3.67
2023-02-17T21:32:31.137Z,4.37
2023-02-17T21:35:18.659Z,3.70
2023-02-17T21:38:06.007Z,4.27
2023-02-17T21:40:53.412Z,4.03
2023-02-17T21:43:59.446Z,4.23
2023-02-17T21:46:46.940Z,3.87
2023-02-17T21:49:34.359Z,4.00
2023-02-17T21:52:22.424Z,4.53
2023-02-17T21:55:09.829Z,4.87
2023-02-17T21:57:57.232Z,4.13
2023-02-17T22:00:44.639Z,4.27
2023-02-17T22:03:32.145Z,4.00
2023-02-17T22:06:21.525Z,3.97
2023-02-17T22:09:10.167Z,4.23
2023-02-17T22:11:57.592Z,4.50
2023-02-17T22:14:44.975Z,3.83
2023-02-17T22:17:32.404Z,4.13
2023-02-17T22:20:19.821Z,3.83
2023-02-17T22:23:07.190Z,3.97
2023-02-17T22:25:54.574Z,4.33
2023-02-17T22:28:42.172Z,4.30
2023-02-17T22:31:30.522Z,4.63
2023-02-17T22:34:18.236Z,4.33
2023-02-17T22:37:05.634Z,4.40
2023-02-17T22:39:53.773Z,4.53
2023-02-17T22:42:41.111Z,4.70
2023-02-17T22:45:28.479Z,6.90
2023-02-17T22:48:15.911Z,5.10
2023-02-17T22:51:07.208Z,5.77
2023-02-17T22:53:54.638Z,4.23
2023-02-17T22:56:42.043Z,5.27
2023-02-17T22:59:29.428Z,5.77
2023-02-17T23:02:16.798Z,5.00
2023-02-17T23:05:04.236Z,4.90
2023-02-17T23:07:52.715Z,4.87
2023-02-17T23:10:41.340Z,4.97
2023-02-17T23:13:28.719Z,4.63
2023-02-17T23:16:21.448Z,5.17
2023-02-17T23:19:10.079Z,3.63
2023-02-17T23:21:58.796Z,4.20
2023-02-17T23:24:47.521Z,4.83
2023-02-17T23:27:34.898Z,4.00
2023-02-17T23:30:23.155Z,5.07
2023-02-17T23:33:10.698Z,4.33
2023-02-17T23:35:58.061Z,5.20
2023-02-17T23:38:45.453Z,3.73
2023-02-17T23:41:32.807Z,3.73
2023-02-17T23:44:20.189Z,4.47
2023-02-17T23:47:07.538Z,4.50
2023-02-17T23:49:54.887Z,4.17
2023-02-17T23:52:42.249Z,3.97
2023-02-17T23:55:29.672Z,3.87
2023-02-17T23:58:17.789Z,4.57
